sensor_id;sensor_type;location;lat;lon;timestamp;P1;durP1;ratioP1;P2;durP2;ratioP2
37647;SDS011;23490;53.656;10.076;2023-09-08T00:00:29;4.72;;;2.75;;
37647;SDS011;23490;53.656;10.076;2023-09-08T00:02:54;5.97;;;3.25;;
37647;SDS011;23490;53.656;10.076;2023-09-08T00:05:20;5.03;;;3.22;;
37647;SDS011;23490;53.656;10.076;2023-09-08T00:07:45;5.53;;;3.58;;
37647;SDS011;23490;53.656;10.076;2023-09-08T00:10:11;5.60;;;3.28;;
37647;SDS011;23490;53.656;10.076;2023-09-08T00:12:37;6.55;;;3.28;;
37647;SDS011;23490;53.656;10.076;2023-09-08T00:15:02;5.63;;;3.30;;
37647;SDS011;23490;53.656;10.076;2023-09-08T00:17:28;6.20;;;3.65;;
37647;SDS011;23490;53.656;10.076;2023-09-08T00:19:53;4.60;;;3.08;;
37647;SDS011;23490;53.656;10.076;2023-09-08T00:22:18;5.03;;;2.83;;
37647;SDS011;23490;53.656;10.076;2023-09-08T00:24:44;6.15;;;3.03;;
37647;SDS011;23490;53.656;10.076;2023-09-08T00:27:10;4.13;;;2.80;;
37647;SDS011;23490;53.656;10.076;2023-09-08T00:29:35;5.95;;;3.08;;
37647;SDS011;23490;53.656;10.076;2023-09-08T00:32:00;5.75;;;2.67;;
37647;SDS011;23490;53.656;10.076;2023-09-08T00:34:26;4.28;;;2.80;;
37647;SDS011;23490;53.656;10.076;2023-09-08T00:36:51;5.30;;;2.90;;
37647;SDS011;23490;53.656;10.076;2023-09-08T00:39:16;5.07;;;3.28;;
37647;SDS011;23490;53.656;10.076;2023-09-08T00:41:42;4.47;;;2.90;;
37647;SDS011;23490;53.656;10.076;2023-09-08T00:44:07;6.25;;;3.08;;
37647;SDS011;23490;53.656;10.076;2023-09-08T00:46:34;5.57;;;3.40;;
37647;SDS011;23490;53.656;10.076;2023-09-08T00:49:00;4.43;;;2.83;;
37647;SDS011;23490;53.656;10.076;2023-09-08T00:51:25;4.93;;;2.85;;
37647;SDS011;23490;53.656;10.076;2023-09-08T00:53:51;4.82;;;3.00;;
37647;SDS011;23490;53.656;10.076;2023-09-08T00:56:16;5.20;;;3.30;;
37647;SDS011;23490;53.656;10.076;2023-09-08T00:58:41;4.75;;;3.33;;
37647;SDS011;23490;53.656;10.076;2023-09-08T01:01:07;5.47;;;3.00;;
37647;SDS011;23490;53.656;10.076;2023-09-08T01:03:32;6.40;;;2.97;;
37647;SDS011;23490;53.656;10.076;2023-09-08T01:05:58;4.45;;;2.85;;
37647;SDS011;23490;53.656;10.076;2023-09-08T01:08:24;4.75;;;2.92;;
37647;SDS011;23490;53.656;10.076;2023-09-08T01:10:50;7.47;;;3.33;;
37647;SDS011;23490;53.656;10.076;2023-09-08T01:13:16;5.20;;;2.97;;
37647;SDS011;23490;53.656;10.076;2023-09-08T01:15:42;5.45;;;2.85;;
37647;SDS011;23490;53.656;10.076;2023-09-08T01:18:07;4.80;;;2.83;;
37647;SDS011;23490;53.656;10.076;2023-09-08T01:20:47;4.68;;;2.83;;
37647;SDS011;23490;53.656;10.076;2023-09-08T01:23:35;5.40;;;3.40;;
37647;SDS011;23490;53.656;10.076;2023-09-08T01:26:21;6.15;;;3.38;;
37647;SDS011;23490;53.656;10.076;2023-09-08T01:28:50;5.22;;;3.25;;
37647;SDS011;23490;53.656;10.076;2023-09-08T01:31:17;5.75;;;3.28;;
37647;SDS011;23490;53.656;10.076;2023-09-08T01:33:43;5.22;;;3.58;;
37647;SDS011;23490;53.656;10.076;2023-09-08T01:36:10;3.75;;;2.50;;
37647;SDS011;23490;53.656;10.076;2023-09-08T01:38:36;4.60;;;2.97;;
37647;SDS011;23490;53.656;10.076;2023-09-08T01:41:01;5.38;;;3.40;;
37647;SDS011;23490;53.656;10.076;2023-09-08T01:43:27;5.20;;;3.03;;
37647;SDS011;23490;53.656;10.076;2023-09-08T01:45:52;7.03;;;3.95;;
37647;SDS011;23490;53.656;10.076;2023-09-08T01:48:18;5.88;;;3.22;;
37647;SDS011;23490;53.656;10.076;2023-09-08T01:50:43;5.80;;;3.35;;
37647;SDS011;23490;53.656;10.076;2023-09-08T01:53:09;4.82;;;3.42;;
37647;SDS011;23490;53.656;10.076;2023-09-08T01:55:34;5.45;;;3.00;;
37647;SDS011;23490;53.656;10.076;2023-09-08T01:57:59;5.97;;;3.22;;
37647;SDS011;23490;53.656;10.076;2023-09-08T02:00:25;5.88;;;3.42;;
37647;SDS011;23490;53.656;10.076;2023-09-08T02:02:50;5.20;;;2.97;;
37647;SDS011;23490;53.656;10.076;2023-09-08T02:05:16;5.88;;;3.35;;
37647;SDS011;23490;53.656;10.076;2023-09-08T02:07:41;5.35;;;2.92;;
37647;SDS011;23490;53.656;10.076;2023-09-08T02:10:07;5.03;;;2.80;;
37647;SDS011;23490;53.656;10.076;2023-09-08T02:12:32;6.20;;;3.17;;
37647;SDS011;23490;53.656;10.076;2023-09-08T02:14:57;6.15;;;3.20;;
37647;SDS011;23490;53.656;10.076;2023-09-08T02:17:23;4.95;;;2.60;;
37647;SDS011;23490;53.656;10.076;2023-09-08T02:19:48;6.28;;;3.47;;
37647;SDS011;23490;53.656;10.076;2023-09-08T02:22:14;4.35;;;2.72;;
37647;SDS011;23490;53.656;10.076;2023-09-08T02:24:39;6.13;;;3.00;;
37647;SDS011;23490;53.656;10.076;2023-09-08T02:27:04;8.05;;;3.38;;
37647;SDS011;23490;53.656;10.076;2023-09-08T02:29:30;6.03;;;3.70;;
37647;SDS011;23490;53.656;10.076;2023-09-08T02:31:56;6.07;;;3.38;;
37647;SDS011;23490;53.656;10.076;2023-09-08T02:34:22;5.43;;;2.72;;
37647;SDS011;23490;53.656;10.076;2023-09-08T02:36:47;5.32;;;3.13;;
37647;SDS011;23490;53.656;10.076;2023-09-08T02:39:13;6.47;;;4.25;;
37647;SDS011;23490;53.656;10.076;2023-09-08T02:41:38;6.15;;;3.58;;
37647;SDS011;23490;53.656;10.076;2023-09-08T02:44:05;5.20;;;3.08;;
37647;SDS011;23490;53.656;10.076;2023-09-08T02:46:30;6.80;;;3.35;;
37647;SDS011;23490;53.656;10.076;2023-09-08T02:48:55;3.95;;;2.65;;
37647;SDS011;23490;53.656;10.076;2023-09-08T02:51:21;6.85;;;3.90;;
37647;SDS011;23490;53.656;10.076;2023-09-08T02:53:46;5.65;;;3.63;;
37647;SDS011;23490;53.656;10.076;2023-09-08T02:56:11;5.05;;;3.17;;
37647;SDS011;23490;53.656;10.076;2023-09-08T02:58:37;5.88;;;3.53;;
37647;SDS011;23490;53.656;10.076;2023-09-08T03:01:12;5.78;;;3.72;;
37647;SDS011;23490;53.656;10.076;2023-09-08T03:03:39;5.45;;;3.10;;
37647;SDS011;23490;53.656;10.076;2023-09-08T03:06:08;6.85;;;3.63;;
37647;SDS011;23490;53.656;10.076;2023-09-08T03:08:34;5.40;;;3.50;;
37647;SDS011;23490;53.656;10.076;2023-09-08T03:11:02;4.28;;;2.70;;
37647;SDS011;23490;53.656;10.076;2023-09-08T03:13:27;5.45;;;3.38;;
37647;SDS011;23490;53.656;10.076;2023-09-08T03:15:54;5.57;;;3.10;;
37647;SDS011;23490;53.656;10.076;2023-09-08T03:18:20;5.68;;;3.33;;
37647;SDS011;23490;53.656;10.076;2023-09-08T03:20:49;6.25;;;3.22;;
37647;SDS011;23490;53.656;10.076;2023-09-08T03:23:15;6.43;;;3.20;;
37647;SDS011;23490;53.656;10.076;2023-09-08T03:25:40;5.05;;;3.03;;
37647;SDS011;23490;53.656;10.076;2023-09-08T03:28:06;5.63;;;3.45;;
37647;SDS011;23490;53.656;10.076;2023-09-08T03:30:31;6.65;;;3.53;;
37647;SDS011;23490;53.656;10.076;2023-09-08T03:32:56;6.57;;;3.47;;
37647;SDS011;23490;53.656;10.076;2023-09-08T03:35:22;5.57;;;3.28;;
37647;SDS011;23490;53.656;10.076;2023-09-08T03:37:47;6.47;;;3.58;;
37647;SDS011;23490;53.656;10.076;2023-09-08T03:40:12;7.20;;;3.50;;
37647;SDS011;23490;53.656;10.076;2023-09-08T03:42:37;5.78;;;4.07;;
37647;SDS011;23490;53.656;10.076;2023-09-08T03:45:03;5.90;;;3.83;;
37647;SDS011;23490;53.656;10.076;2023-09-08T03:47:29;6.03;;;3.50;;
37647;SDS011;23490;53.656;10.076;2023-09-08T03:49:54;6.13;;;3.50;;
37647;SDS011;23490;53.656;10.076;2023-09-08T03:52:19;7.38;;;3.75;;
37647;SDS011;23490;53.656;10.076;2023-09-08T03:54:45;5.53;;;3.45;;
37647;SDS011;23490;53.656;10.076;2023-09-08T03:57:11;5.65;;;3.70;;
37647;SDS011;23490;53.656;10.076;2023-09-08T03:59:36;6.03;;;3.70;;
37647;SDS011;23490;53.656;10.076;2023-09-08T04:02:02;7.15;;;4.32;;
37647;SDS011;23490;53.656;10.076;2023-09-08T04:04:27;6.28;;;4.00;;
37647;SDS011;23490;53.656;10.076;2023-09-08T04:06:52;7.13;;;3.83;;
37647;SDS011;23490;53.656;10.076;2023-09-08T04:09:17;6.70;;;4.63;;
37647;SDS011;23490;53.656;10.076;2023-09-08T04:11:43;5.63;;;3.53;;
37647;SDS011;23490;53.656;10.076;2023-09-08T04:14:08;6.18;;;3.85;;
37647;SDS011;23490;53.656;10.076;2023-09-08T04:16:33;6.22;;;3.53;;
37647;SDS011;23490;53.656;10.076;2023-09-08T04:18:59;6.93;;;3.80;;
37647;SDS011;23490;53.656;10.076;2023-09-08T04:21:24;5.22;;;3.40;;
37647;SDS011;23490;53.656;10.076;2023-09-08T04:23:49;7.97;;;3.97;;
37647;SDS011;23490;53.656;10.076;2023-09-08T04:26:15;5.72;;;3.30;;
37647;SDS011;23490;53.656;10.076;2023-09-08T04:28:40;8.15;;;3.75;;
37647;SDS011;23490;53.656;10.076;2023-09-08T04:31:06;6.05;;;3.63;;
37647;SDS011;23490;53.656;10.076;2023-09-08T04:33:31;6.45;;;4.22;;
37647;SDS011;23490;53.656;10.076;2023-09-08T04:35:56;6.32;;;3.85;;
37647;SDS011;23490;53.656;10.076;2023-09-08T04:38:22;6.22;;;4.07;;
37647;SDS011;23490;53.656;10.076;2023-09-08T04:40:47;8.07;;;4.38;;
37647;SDS011;23490;53.656;10.076;2023-09-08T04:43:13;7.00;;;3.97;;
37647;SDS011;23490;53.656;10.076;2023-09-08T04:45:38;6.68;;;3.90;;
37647;SDS011;23490;53.656;10.076;2023-09-08T04:48:04;6.25;;;3.58;;
37647;SDS011;23490;53.656;10.076;2023-09-08T04:50:30;8.45;;;3.80;;
37647;SDS011;23490;53.656;10.076;2023-09-08T04:52:55;7.45;;;4.22;;
37647;SDS011;23490;53.656;10.076;2023-09-08T04:55:20;5.57;;;3.85;;
37647;SDS011;23490;53.656;10.076;2023-09-08T04:57:45;7.10;;;4.13;;
37647;SDS011;23490;53.656;10.076;2023-09-08T05:00:11;6.97;;;4.25;;
37647;SDS011;23490;53.656;10.076;2023-09-08T05:02:37;6.28;;;3.97;;
37647;SDS011;23490;53.656;10.076;2023-09-08T05:05:02;6.72;;;4.20;;
37647;SDS011;23490;53.656;10.076;2023-09-08T05:07:28;6.15;;;4.00;;
37647;SDS011;23490;53.656;10.076;2023-09-08T05:09:53;6.68;;;4.00;;
37647;SDS011;23490;53.656;10.076;2023-09-08T05:12:18;6.75;;;4.20;;
37647;SDS011;23490;53.656;10.076;2023-09-08T05:14:44;6.93;;;4.32;;
37647;SDS011;23490;53.656;10.076;2023-09-08T05:17:10;8.25;;;4.30;;
37647;SDS011;23490;53.656;10.076;2023-09-08T05:19:36;7.78;;;4.45;;
37647;SDS011;23490;53.656;10.076;2023-09-08T05:22:01;9.15;;;4.78;;
37647;SDS011;23490;53.656;10.076;2023-09-08T05:24:27;7.45;;;4.78;;
37647;SDS011;23490;53.656;10.076;2023-09-08T05:26:52;9.07;;;5.22;;
37647;SDS011;23490;53.656;10.076;2023-09-08T05:29:18;8.15;;;4.30;;
37647;SDS011;23490;53.656;10.076;2023-09-08T05:31:43;8.65;;;4.85;;
37647;SDS011;23490;53.656;10.076;2023-09-08T05:34:09;5.70;;;3.88;;
37647;SDS011;23490;53.656;10.076;2023-09-08T05:36:34;6.88;;;4.38;;
37647;SDS011;23490;53.656;10.076;2023-09-08T05:39:03;9.27;;;4.93;;
37647;SDS011;23490;53.656;10.076;2023-09-08T05:41:28;8.48;;;4.75;;
37647;SDS011;23490;53.656;10.076;2023-09-08T05:43:54;8.20;;;4.20;;
37647;SDS011;23490;53.656;10.076;2023-09-08T05:46:19;9.68;;;4.03;;
37647;SDS011;23490;53.656;10.076;2023-09-08T05:48:44;10.40;;;4.47;;
37647;SDS011;23490;53.656;10.076;2023-09-08T05:51:10;7.40;;;4.15;;
37647;SDS011;23490;53.656;10.076;2023-09-08T05:53:35;6.65;;;4.32;;
37647;SDS011;23490;53.656;10.076;2023-09-08T05:56:03;6.53;;;4.43;;
37647;SDS011;23490;53.656;10.076;2023-09-08T05:58:28;7.90;;;4.97;;
37647;SDS011;23490;53.656;10.076;2023-09-08T06:00:54;7.38;;;4.15;;
37647;SDS011;23490;53.656;10.076;2023-09-08T06:03:19;6.50;;;4.05;;
37647;SDS011;23490;53.656;10.076;2023-09-08T06:05:45;6.45;;;3.92;;
37647;SDS011;23490;53.656;10.076;2023-09-08T06:08:10;6.72;;;4.53;;
37647;SDS011;23490;53.656;10.076;2023-09-08T06:10:36;6.68;;;4.47;;
37647;SDS011;23490;53.656;10.076;2023-09-08T06:13:02;7.38;;;4.45;;
37647;SDS011;23490;53.656;10.076;2023-09-08T06:15:27;7.55;;;4.15;;
37647;SDS011;23490;53.656;10.076;2023-09-08T06:17:52;5.85;;;3.80;;
37647;SDS011;23490;53.656;10.076;2023-09-08T06:20:18;7.07;;;4.13;;
37647;SDS011;23490;53.656;10.076;2023-09-08T06:22:43;6.30;;;3.97;;
37647;SDS011;23490;53.656;10.076;2023-09-08T06:25:08;8.82;;;5.40;;
37647;SDS011;23490;53.656;10.076;2023-09-08T06:27:34;6.90;;;4.00;;
37647;SDS011;23490;53.656;10.076;2023-09-08T06:30:00;7.05;;;4.28;;
37647;SDS011;23490;53.656;10.076;2023-09-08T06:32:25;6.43;;;3.90;;
37647;SDS011;23490;53.656;10.076;2023-09-08T06:34:50;8.13;;;4.72;;
37647;SDS011;23490;53.656;10.076;2023-09-08T06:37:16;6.78;;;3.67;;
37647;SDS011;23490;53.656;10.076;2023-09-08T06:39:41;6.22;;;3.72;;
37647;SDS011;23490;53.656;10.076;2023-09-08T06:42:06;5.97;;;4.05;;
37647;SDS011;23490;53.656;10.076;2023-09-08T06:44:32;7.22;;;4.15;;
37647;SDS011;23490;53.656;10.076;2023-09-08T06:46:57;7.25;;;3.80;;
37647;SDS011;23490;53.656;10.076;2023-09-08T06:49:22;5.60;;;3.58;;
37647;SDS011;23490;53.656;10.076;2023-09-08T06:51:47;6.40;;;3.70;;
37647;SDS011;23490;53.656;10.076;2023-09-08T06:54:14;5.78;;;3.92;;
37647;SDS011;23490;53.656;10.076;2023-09-08T06:56:39;6.72;;;3.50;;
37647;SDS011;23490;53.656;10.076;2023-09-08T06:59:04;6.22;;;3.75;;
37647;SDS011;23490;53.656;10.076;2023-09-08T07:01:30;6.57;;;3.88;;
37647;SDS011;23490;53.656;10.076;2023-09-08T07:03:55;7.72;;;3.47;;
37647;SDS011;23490;53.656;10.076;2023-09-08T07:06:20;5.90;;;3.58;;
37647;SDS011;23490;53.656;10.076;2023-09-08T07:08:47;7.15;;;4.28;;
37647;SDS011;23490;53.656;10.076;2023-09-08T07:11:15;7.30;;;4.05;;
37647;SDS011;23490;53.656;10.076;2023-09-08T07:13:40;6.03;;;4.15;;
37647;SDS011;23490;53.656;10.076;2023-09-08T07:16:06;7.35;;;3.50;;
37647;SDS011;23490;53.656;10.076;2023-09-08T07:18:31;5.43;;;3.25;;
37647;SDS011;23490;53.656;10.076;2023-09-08T07:21:00;6.57;;;4.45;;
37647;SDS011;23490;53.656;10.076;2023-09-08T07:23:26;6.68;;;3.35;;
37647;SDS011;23490;53.656;10.076;2023-09-08T07:25:51;6.38;;;3.28;;
37647;SDS011;23490;53.656;10.076;2023-09-08T07:28:16;5.93;;;3.40;;
37647;SDS011;23490;53.656;10.076;2023-09-08T07:30:42;7.05;;;4.15;;
37647;SDS011;23490;53.656;10.076;2023-09-08T07:33:08;4.95;;;3.40;;
37647;SDS011;23490;53.656;10.076;2023-09-08T07:35:37;6.80;;;4.40;;
37647;SDS011;23490;53.656;10.076;2023-09-08T07:40:28;6.20;;;3.47;;
37647;SDS011;23490;53.656;10.076;2023-09-08T07:42:54;5.82;;;3.28;;
37647;SDS011;23490;53.656;10.076;2023-09-08T07:45:19;6.07;;;3.53;;
37647;SDS011;23490;53.656;10.076;2023-09-08T07:47:44;5.53;;;3.30;;
37647;SDS011;23490;53.656;10.076;2023-09-08T07:50:17;6.85;;;3.60;;
37647;SDS011;23490;53.656;10.076;2023-09-08T07:52:45;5.28;;;3.65;;
37647;SDS011;23490;53.656;10.076;2023-09-08T07:55:10;6.32;;;3.40;;
37647;SDS011;23490;53.656;10.076;2023-09-08T07:57:36;5.50;;;2.97;;
37647;SDS011;23490;53.656;10.076;2023-09-08T08:00:01;6.15;;;2.90;;
37647;SDS011;23490;53.656;10.076;2023-09-08T08:02:27;6.00;;;3.42;;
37647;SDS011;23490;53.656;10.076;2023-09-08T08:04:52;3.88;;;2.90;;
37647;SDS011;23490;53.656;10.076;2023-09-08T08:07:18;4.78;;;2.83;;
37647;SDS011;23490;53.656;10.076;2023-09-08T08:09:43;6.15;;;3.78;;
37647;SDS011;23490;53.656;10.076;2023-09-08T08:12:08;6.03;;;3.03;;
37647;SDS011;23490;53.656;10.076;2023-09-08T08:14:33;5.90;;;3.35;;
37647;SDS011;23490;53.656;10.076;2023-09-08T08:16:59;5.78;;;3.13;;
37647;SDS011;23490;53.656;10.076;2023-09-08T08:19:24;4.88;;;3.30;;
37647;SDS011;23490;53.656;10.076;2023-09-08T08:21:49;4.90;;;3.20;;
37647;SDS011;23490;53.656;10.076;2023-09-08T08:24:16;4.65;;;2.97;;
37647;SDS011;23490;53.656;10.076;2023-09-08T08:26:41;5.18;;;3.08;;
37647;SDS011;23490;53.656;10.076;2023-09-08T08:29:06;5.53;;;2.40;;
37647;SDS011;23490;53.656;10.076;2023-09-08T08:31:31;5.03;;;3.22;;
37647;SDS011;23490;53.656;10.076;2023-09-08T08:33:58;4.75;;;3.03;;
37647;SDS011;23490;53.656;10.076;2023-09-08T08:36:23;3.53;;;2.47;;
37647;SDS011;23490;53.656;10.076;2023-09-08T08:38:48;5.72;;;3.10;;
37647;SDS011;23490;53.656;10.076;2023-09-08T08:41:14;5.10;;;3.35;;
37647;SDS011;23490;53.656;10.076;2023-09-08T08:43:40;5.90;;;2.63;;
37647;SDS011;23490;53.656;10.076;2023-09-08T08:46:08;4.72;;;3.03;;
37647;SDS011;23490;53.656;10.076;2023-09-08T08:48:33;3.85;;;2.53;;
37647;SDS011;23490;53.656;10.076;2023-09-08T08:51:00;4.57;;;2.50;;
37647;SDS011;23490;53.656;10.076;2023-09-08T08:53:27;4.95;;;3.30;;
37647;SDS011;23490;53.656;10.076;2023-09-08T08:55:55;7.07;;;3.05;;
37647;SDS011;23490;53.656;10.076;2023-09-08T08:58:22;4.75;;;3.00;;
37647;SDS011;23490;53.656;10.076;2023-09-08T09:00:51;5.15;;;2.60;;
37647;SDS011;23490;53.656;10.076;2023-09-08T09:03:18;4.15;;;2.75;;
37647;SDS011;23490;53.656;10.076;2023-09-08T09:05:45;3.88;;;2.70;;
37647;SDS011;23490;53.656;10.076;2023-09-08T09:08:11;4.78;;;3.03;;
37647;SDS011;23490;53.656;10.076;2023-09-08T09:10:38;5.45;;;3.17;;
37647;SDS011;23490;53.656;10.076;2023-09-08T09:13:03;4.88;;;3.08;;
37647;SDS011;23490;53.656;10.076;2023-09-08T09:15:30;5.18;;;2.92;;
37647;SDS011;23490;53.656;10.076;2023-09-08T09:18:07;4.68;;;2.75;;
37647;SDS011;23490;53.656;10.076;2023-09-08T09:20:33;5.53;;;2.78;;
37647;SDS011;23490;53.656;10.076;2023-09-08T09:23:00;4.63;;;2.95;;
37647;SDS011;23490;53.656;10.076;2023-09-08T09:25:26;3.55;;;2.75;;
37647;SDS011;23490;53.656;10.076;2023-09-08T09:27:53;4.47;;;3.10;;
37647;SDS011;23490;53.656;10.076;2023-09-08T09:30:26;4.68;;;3.00;;
37647;SDS011;23490;53.656;10.076;2023-09-08T09:32:59;3.88;;;2.47;;
37647;SDS011;23490;53.656;10.076;2023-09-08T09:35:41;4.72;;;3.13;;
37647;SDS011;23490;53.656;10.076;2023-09-08T09:38:07;4.70;;;2.75;;
37647;SDS011;23490;53.656;10.076;2023-09-08T09:40:33;3.70;;;2.33;;
37647;SDS011;23490;53.656;10.076;2023-09-08T09:42:59;4.20;;;3.03;;
37647;SDS011;23490;53.656;10.076;2023-09-08T09:45:25;4.15;;;2.95;;
37647;SDS011;23490;53.656;10.076;2023-09-08T09:47:51;5.00;;;2.72;;
37647;SDS011;23490;53.656;10.076;2023-09-08T09:50:27;4.82;;;2.33;;
37647;SDS011;23490;53.656;10.076;2023-09-08T09:53:00;3.53;;;2.38;;
37647;SDS011;23490;53.656;10.076;2023-09-08T09:55:27;4.57;;;2.75;;
37647;SDS011;23490;53.656;10.076;2023-09-08T09:57:56;5.35;;;3.28;;
37647;SDS011;23490;53.656;10.076;2023-09-08T10:00:28;4.45;;;2.67;;
37647;SDS011;23490;53.656;10.076;2023-09-08T10:02:54;3.78;;;2.50;;
37647;SDS011;23490;53.656;10.076;2023-09-08T10:05:20;4.72;;;2.45;;
37647;SDS011;23490;53.656;10.076;2023-09-08T10:07:46;4.75;;;2.88;;
37647;SDS011;23490;53.656;10.076;2023-09-08T10:10:13;4.15;;;2.70;;
37647;SDS011;23490;53.656;10.076;2023-09-08T10:12:39;3.83;;;2.70;;
37647;SDS011;23490;53.656;10.076;2023-09-08T10:15:14;4.35;;;2.88;;
37647;SDS011;23490;53.656;10.076;2023-09-08T10:17:43;4.07;;;2.65;;
37647;SDS011;23490;53.656;10.076;2023-09-08T10:20:09;5.57;;;3.45;;
37647;SDS011;23490;53.656;10.076;2023-09-08T10:22:41;3.55;;;2.55;;
37647;SDS011;23490;53.656;10.076;2023-09-08T10:25:08;3.58;;;2.28;;
37647;SDS011;23490;53.656;10.076;2023-09-08T10:27:37;4.18;;;2.60;;
37647;SDS011;23490;53.656;10.076;2023-09-08T10:30:03;5.20;;;2.40;;
37647;SDS011;23490;53.656;10.076;2023-09-08T10:32:33;3.88;;;2.67;;
37647;SDS011;23490;53.656;10.076;2023-09-08T10:35:02;4.28;;;2.67;;
37647;SDS011;23490;53.656;10.076;2023-09-08T10:37:29;4.45;;;3.15;;
37647;SDS011;23490;53.656;10.076;2023-09-08T10:39:55;4.85;;;3.28;;
37647;SDS011;23490;53.656;10.076;2023-09-08T10:42:40;4.57;;;2.97;;
37647;SDS011;23490;53.656;10.076;2023-09-08T10:45:13;4.30;;;2.70;;
37647;SDS011;23490;53.656;10.076;2023-09-08T10:50:17;3.17;;;2.53;;
37647;SDS011;23490;53.656;10.076;2023-09-08T10:52:44;3.47;;;2.53;;
37647;SDS011;23490;53.656;10.076;2023-09-08T10:55:11;3.78;;;2.40;;
37647;SDS011;23490;53.656;10.076;2023-09-08T10:57:44;3.55;;;2.42;;
37647;SDS011;23490;53.656;10.076;2023-09-08T11:00:10;5.53;;;2.45;;
37647;SDS011;23490;53.656;10.076;2023-09-08T11:05:03;3.67;;;2.58;;
37647;SDS011;23490;53.656;10.076;2023-09-08T11:07:31;3.30;;;2.38;;
37647;SDS011;23490;53.656;10.076;2023-09-08T11:09:58;2.95;;;2.28;;
37647;SDS011;23490;53.656;10.076;2023-09-08T11:12:27;3.83;;;2.50;;
37647;SDS011;23490;53.656;10.076;2023-09-08T11:14:53;3.72;;;2.35;;
37647;SDS011;23490;53.656;10.076;2023-09-08T11:17:19;4.13;;;2.63;;
37647;SDS011;23490;53.656;10.076;2023-09-08T11:19:45;4.25;;;2.58;;
37647;SDS011;23490;53.656;10.076;2023-09-08T11:22:12;5.00;;;2.83;;
37647;SDS011;23490;53.656;10.076;2023-09-08T11:24:38;3.42;;;2.40;;
37647;SDS011;23490;53.656;10.076;2023-09-08T11:27:04;4.82;;;3.20;;
37647;SDS011;23490;53.656;10.076;2023-09-08T11:29:30;3.40;;;2.47;;
37647;SDS011;23490;53.656;10.076;2023-09-08T11:31:56;4.70;;;2.50;;
37647;SDS011;23490;53.656;10.076;2023-09-08T11:34:21;3.20;;;2.15;;
37647;SDS011;23490;53.656;10.076;2023-09-08T11:36:47;4.60;;;2.28;;
37647;SDS011;23490;53.656;10.076;2023-09-08T11:39:12;3.97;;;2.10;;
37647;SDS011;23490;53.656;10.076;2023-09-08T11:41:37;3.03;;;2.03;;
37647;SDS011;23490;53.656;10.076;2023-09-08T11:44:03;3.17;;;1.80;;
37647;SDS011;23490;53.656;10.076;2023-09-08T11:46:29;3.50;;;2.45;;
37647;SDS011;23490;53.656;10.076;2023-09-08T11:48:55;3.78;;;2.40;;
37647;SDS011;23490;53.656;10.076;2023-09-08T11:51:25;2.50;;;1.90;;
37647;SDS011;23490;53.656;10.076;2023-09-08T11:53:51;3.15;;;2.10;;
37647;SDS011;23490;53.656;10.076;2023-09-08T11:56:17;4.25;;;2.15;;
37647;SDS011;23490;53.656;10.076;2023-09-08T11:58:42;3.45;;;2.33;;
37647;SDS011;23490;53.656;10.076;2023-09-08T12:01:08;3.03;;;2.00;;
37647;SDS011;23490;53.656;10.076;2023-09-08T12:03:34;2.75;;;2.10;;
37647;SDS011;23490;53.656;10.076;2023-09-08T12:06:00;2.92;;;2.13;;
37647;SDS011;23490;53.656;10.076;2023-09-08T12:08:27;3.28;;;2.10;;
37647;SDS011;23490;53.656;10.076;2023-09-08T12:10:53;3.55;;;2.28;;
37647;SDS011;23490;53.656;10.076;2023-09-08T12:13:22;4.25;;;2.33;;
37647;SDS011;23490;53.656;10.076;2023-09-08T12:15:48;2.97;;;2.00;;
37647;SDS011;23490;53.656;10.076;2023-09-08T12:18:14;3.20;;;2.13;;
37647;SDS011;23490;53.656;10.076;2023-09-08T12:20:40;3.55;;;2.30;;
37647;SDS011;23490;53.656;10.076;2023-09-08T12:23:19;3.75;;;2.45;;
37647;SDS011;23490;53.656;10.076;2023-09-08T12:25:46;2.78;;;2.17;;
37647;SDS011;23490;53.656;10.076;2023-09-08T12:28:16;3.72;;;2.15;;
37647;SDS011;23490;53.656;10.076;2023-09-08T12:30:42;2.88;;;2.30;;
37647;SDS011;23490;53.656;10.076;2023-09-08T12:33:08;2.85;;;2.08;;
37647;SDS011;23490;53.656;10.076;2023-09-08T12:35:35;3.35;;;2.30;;
37647;SDS011;23490;53.656;10.076;2023-09-08T12:38:01;3.97;;;2.63;;
37647;SDS011;23490;53.656;10.076;2023-09-08T12:40:30;3.47;;;2.40;;
37647;SDS011;23490;53.656;10.076;2023-09-08T12:42:56;3.28;;;2.10;;
37647;SDS011;23490;53.656;10.076;2023-09-08T12:45:25;3.78;;;2.30;;
37647;SDS011;23490;53.656;10.076;2023-09-08T12:47:50;3.03;;;2.15;;
37647;SDS011;23490;53.656;10.076;2023-09-08T12:50:16;4.45;;;2.22;;
37647;SDS011;23490;53.656;10.076;2023-09-08T12:52:42;3.10;;;2.08;;
37647;SDS011;23490;53.656;10.076;2023-09-08T12:55:07;3.60;;;2.17;;
37647;SDS011;23490;53.656;10.076;2023-09-08T12:57:34;5.45;;;2.25;;
37647;SDS011;23490;53.656;10.076;2023-09-08T12:59:59;4.00;;;2.38;;
37647;SDS011;23490;53.656;10.076;2023-09-08T13:02:25;3.95;;;2.42;;
37647;SDS011;23490;53.656;10.076;2023-09-08T13:04:50;4.40;;;2.45;;
37647;SDS011;23490;53.656;10.076;2023-09-08T13:07:15;3.17;;;2.40;;
37647;SDS011;23490;53.656;10.076;2023-09-08T13:09:41;4.25;;;2.08;;
37647;SDS011;23490;53.656;10.076;2023-09-08T13:12:06;5.05;;;2.30;;
37647;SDS011;23490;53.656;10.076;2023-09-08T13:14:34;2.90;;;2.10;;
37647;SDS011;23490;53.656;10.076;2023-09-08T13:17:00;3.45;;;2.15;;
37647;SDS011;23490;53.656;10.076;2023-09-08T13:19:25;5.60;;;2.25;;
37647;SDS011;23490;53.656;10.076;2023-09-08T13:21:51;3.60;;;2.10;;
37647;SDS011;23490;53.656;10.076;2023-09-08T13:24:16;3.22;;;2.20;;
37647;SDS011;23490;53.656;10.076;2023-09-08T13:26:41;3.42;;;2.00;;
37647;SDS011;23490;53.656;10.076;2023-09-08T13:29:06;2.65;;;2.00;;
37647;SDS011;23490;53.656;10.076;2023-09-08T13:31:32;3.28;;;2.03;;
37647;SDS011;23490;53.656;10.076;2023-09-08T13:33:57;3.78;;;2.53;;
37647;SDS011;23490;53.656;10.076;2023-09-08T13:36:22;2.90;;;2.15;;
37647;SDS011;23490;53.656;10.076;2023-09-08T13:38:48;3.17;;;2.17;;
37647;SDS011;23490;53.656;10.076;2023-09-08T13:41:13;2.60;;;1.80;;
37647;SDS011;23490;53.656;10.076;2023-09-08T13:43:39;3.70;;;2.00;;
37647;SDS011;23490;53.656;10.076;2023-09-08T13:46:04;2.85;;;2.13;;
37647;SDS011;23490;53.656;10.076;2023-09-08T13:48:29;3.45;;;2.22;;
37647;SDS011;23490;53.656;10.076;2023-09-08T13:50:55;2.60;;;1.85;;
37647;SDS011;23490;53.656;10.076;2023-09-08T13:53:21;2.53;;;2.08;;
37647;SDS011;23490;53.656;10.076;2023-09-08T13:55:47;2.95;;;1.73;;
37647;SDS011;23490;53.656;10.076;2023-09-08T13:58:13;2.90;;;1.92;;
37647;SDS011;23490;53.656;10.076;2023-09-08T14:00:38;2.80;;;2.03;;
37647;SDS011;23490;53.656;10.076;2023-09-08T14:03:04;2.60;;;1.88;;
37647;SDS011;23490;53.656;10.076;2023-09-08T14:05:29;3.00;;;2.00;;
37647;SDS011;23490;53.656;10.076;2023-09-08T14:07:55;2.67;;;1.98;;
37647;SDS011;23490;53.656;10.076;2023-09-08T14:10:20;3.22;;;1.70;;
37647;SDS011;23490;53.656;10.076;2023-09-08T14:12:45;3.83;;;2.53;;
37647;SDS011;23490;53.656;10.076;2023-09-08T14:15:11;2.90;;;1.90;;
37647;SDS011;23490;53.656;10.076;2023-09-08T14:17:40;3.03;;;2.05;;
37647;SDS011;23490;53.656;10.076;2023-09-08T14:20:05;3.58;;;1.73;;
37647;SDS011;23490;53.656;10.076;2023-09-08T14:22:32;3.00;;;2.20;;
37647;SDS011;23490;53.656;10.076;2023-09-08T14:24:58;3.03;;;2.10;;
37647;SDS011;23490;53.656;10.076;2023-09-08T14:27:23;4.43;;;1.92;;
37647;SDS011;23490;53.656;10.076;2023-09-08T14:29:49;2.65;;;1.85;;
37647;SDS011;23490;53.656;10.076;2023-09-08T14:32:14;3.10;;;1.98;;
37647;SDS011;23490;53.656;10.076;2023-09-08T14:34:39;2.75;;;2.00;;